createdAt,value
2022-10-23T00:01:00.118Z,2.50
2022-10-23T00:03:27.680Z,2.55
2022-10-23T00:05:55.090Z,2.58
2022-10-23T00:08:22.443Z,2.22
2022-10-23T00:10:49.807Z,2.30
2022-10-23T00:13:17.142Z,2.13
2022-10-23T00:15:44.501Z,2.90
2022-10-23T00:18:11.855Z,2.28
2022-10-23T00:20:39.200Z,2.50
2022-10-23T00:23:06.590Z,2.40
2022-10-23T00:25:33.912Z,2.33
2022-10-23T00:28:01.357Z,2.58
2022-10-23T00:30:28.825Z,2.75
2022-10-23T00:32:56.384Z,2.40
2022-10-23T00:35:23.703Z,1.95
2022-10-23T00:37:51.063Z,1.83
2022-10-23T00:40:18.604Z,2.17
2022-10-23T00:42:45.970Z,2.20
2022-10-23T00:45:27.805Z,2.67
2022-10-23T00:47:56.095Z,2.05
2022-10-23T00:50:25.582Z,2.25
2022-10-23T00:52:54.798Z,1.70
2022-10-23T00:55:23.165Z,1.92
2022-10-23T00:57:51.527Z,2.05
2022-10-23T01:00:31.617Z,1.98
2022-10-23T01:02:59.980Z,2.40
2022-10-23T01:05:30.924Z,1.98
2022-10-23T01:08:03.089Z,1.48
2022-10-23T01:10:33.484Z,2.00
2022-10-23T01:13:10.767Z,1.92
2022-10-23T01:15:40.042Z,2.13
2022-10-23T01:18:46.664Z,2.15
2022-10-23T01:21:14.388Z,2.13
2022-10-23T01:24:00.663Z,2.03
2022-10-23T01:26:30.775Z,2.20
2022-10-23T01:31:36.649Z,2.00
2022-10-23T01:34:30.066Z,1.90
2022-10-23T01:36:57.903Z,1.90
2022-10-23T01:39:30.632Z,2.05
2022-10-23T01:42:06.221Z,2.10
2022-10-23T01:44:39.640Z,2.33
2022-10-23T01:47:09.482Z,2.65
2022-10-23T01:49:50.998Z,2.33
2022-10-23T01:52:19.217Z,2.40
2022-10-23T01:54:51.548Z,2.55
2022-10-23T01:57:21.688Z,1.90
2022-10-23T01:59:55.094Z,2.17
2022-10-23T02:02:24.549Z,1.80
2022-10-23T02:04:55.954Z,1.70
2022-10-23T02:07:23.762Z,2.30
2022-10-23T02:09:51.181Z,1.80
2022-10-23T02:12:24.777Z,2.67
2022-10-23T02:14:57.901Z,1.80
2022-10-23T02:17:48.274Z,2.08
2022-10-23T02:20:19.035Z,2.88
2022-10-23T02:23:12.896Z,2.70
2022-10-23T02:25:45.118Z,2.70
2022-10-23T02:28:16.494Z,2.53
2022-10-23T02:30:46.851Z,2.47
2022-10-23T02:33:14.907Z,1.98
2022-10-23T02:35:42.555Z,2.20
2022-10-23T02:38:35.917Z,1.98
2022-10-23T02:41:12.643Z,2.38
2022-10-23T02:43:57.124Z,1.80
2022-10-23T02:46:36.605Z,1.90
2022-10-23T02:49:04.261Z,1.77
2022-10-23T02:52:14.195Z,2.03
2022-10-23T02:55:04.143Z,2.33
2022-10-23T02:58:09.515Z,2.22
2022-10-23T03:00:47.165Z,2.30
2022-10-23T03:03:17.338Z,2.97
2022-10-23T03:05:45.938Z,2.67
2022-10-23T03:08:15.327Z,2.30
2022-10-23T03:10:43.191Z,2.22
2022-10-23T03:13:11.729Z,2.60
2022-10-23T03:15:43.783Z,2.72
2022-10-23T03:18:14.232Z,2.47
2022-10-23T03:20:46.177Z,2.65
2022-10-23T03:23:15.204Z,2.08
2022-10-23T03:25:43.338Z,2.50
2022-10-23T03:28:22.144Z,2.75
2022-10-23T03:30:49.662Z,2.65
2022-10-23T03:33:16.988Z,2.88
2022-10-23T03:35:44.427Z,2.47
2022-10-23T03:38:14.982Z,2.17
2022-10-23T03:40:43.174Z,2.00
2022-10-23T03:43:12.879Z,1.42
2022-10-23T03:45:40.496Z,1.80
2022-10-23T03:48:08.890Z,1.73
2022-10-23T03:50:36.799Z,1.65
2022-10-23T03:53:05.896Z,1.15
2022-10-23T03:55:34.920Z,1.70
2022-10-23T03:58:02.499Z,1.45
2022-10-23T04:00:29.931Z,1.38
2022-10-23T04:02:57.255Z,1.40
2022-10-23T04:05:24.721Z,1.08
2022-10-23T04:07:55.735Z,0.90
2022-10-23T04:10:23.330Z,1.10
2022-10-23T04:12:51.226Z,1.00
2022-10-23T04:15:18.674Z,0.90
2022-10-23T04:17:47.106Z,1.00
2022-10-23T04:20:14.491Z,1.10
2022-10-23T04:22:42.145Z,1.40
2022-10-23T04:25:10.895Z,1.25
2022-10-23T04:27:38.241Z,1.15
2022-10-23T04:30:05.897Z,1.20
2022-10-23T04:32:33.261Z,1.40
2022-10-23T04:35:00.771Z,1.08
2022-10-23T04:37:30.602Z,1.13
2022-10-23T04:39:57.935Z,1.15
2022-10-23T04:45:00.194Z,1.17
2022-10-23T04:47:28.302Z,1.20
2022-10-23T04:50:00.149Z,1.30
2022-10-23T04:52:47.848Z,1.42
2022-10-23T04:55:53.668Z,1.08
2022-10-23T04:58:29.943Z,1.25
2022-10-23T05:00:58.861Z,1.40
2022-10-23T05:03:27.345Z,1.48
2022-10-23T05:05:55.806Z,1.42
2022-10-23T05:09:01.356Z,1.33
2022-10-23T05:11:40.225Z,1.35
2022-10-23T05:14:09.412Z,1.42
2022-10-23T05:16:39.797Z,1.02
2022-10-23T05:21:36.638Z,1.33
2022-10-23T05:24:06.821Z,0.95
2022-10-23T05:26:35.218Z,1.30
2022-10-23T05:29:07.256Z,1.40
2022-10-23T05:31:35.763Z,1.20
2022-10-23T05:34:13.533Z,0.98
2022-10-23T05:36:44.721Z,1.45
2022-10-23T05:39:13.302Z,1.23
2022-10-23T05:41:40.840Z,1.20
2022-10-23T05:44:08.203Z,1.42
2022-10-23T05:47:08.159Z,1.20
2022-10-23T05:49:53.860Z,1.40
2022-10-23T05:52:43.098Z,1.80
2022-10-23T05:55:49.091Z,1.98
2022-10-23T05:58:36.915Z,1.70
2022-10-23T06:01:30.417Z,1.50
2022-10-23T06:04:05.758Z,1.55
2022-10-23T06:06:52.361Z,2.53
2022-10-23T06:09:19.720Z,1.77
2022-10-23T06:11:48.411Z,1.73
2022-10-23T06:14:20.927Z,2.20
2022-10-23T06:16:50.889Z,1.98
2022-10-23T06:19:19.389Z,1.40
2022-10-23T06:21:49.904Z,1.58
2022-10-23T06:24:17.832Z,1.77
2022-10-23T06:26:50.395Z,2.00
2022-10-23T06:29:22.168Z,1.58
2022-10-23T06:31:51.045Z,1.67
2022-10-23T06:34:18.422Z,1.52
2022-10-23T06:36:46.964Z,1.63
2022-10-23T06:39:32.312Z,1.30
2022-10-23T06:42:14.155Z,1.60
2022-10-23T06:45:06.588Z,1.85
2022-10-23T06:50:40.524Z,1.83
2022-10-23T06:53:15.639Z,1.73
2022-10-23T06:55:52.868Z,1.50
2022-10-23T06:58:23.160Z,1.35
2022-10-23T07:01:05.151Z,1.70
2022-10-23T07:03:34.307Z,2.25
2022-10-23T07:06:07.582Z,1.98
2022-10-23T07:08:36.346Z,1.80
2022-10-23T07:11:11.964Z,1.95
2022-10-23T07:13:40.541Z,3.97
2022-10-23T07:16:19.822Z,3.45
2022-10-23T07:18:49.341Z,2.60
2022-10-23T07:21:32.852Z,2.38
2022-10-23T07:24:18.429Z,2.03
2022-10-23T07:26:45.967Z,2.05
2022-10-23T07:29:15.037Z,2.03
2022-10-23T07:31:43.398Z,2.20
2022-10-23T07:34:29.388Z,2.33
2022-10-23T07:37:19.187Z,2.30
2022-10-23T07:39:46.541Z,2.70
2022-10-23T07:42:14.733Z,1.85
2022-10-23T07:44:42.841Z,2.20
2022-10-23T07:47:10.611Z,1.92
2022-10-23T07:49:41.115Z,2.47
2022-10-23T07:52:08.598Z,1.88
2022-10-23T07:54:56.007Z,2.55
2022-10-23T07:57:25.402Z,2.80
2022-10-23T08:00:01.550Z,1.60
2022-10-23T08:02:30.168Z,1.75
2022-10-23T08:04:57.633Z,2.05
2022-10-23T08:07:31.275Z,1.80
2022-10-23T08:09:58.749Z,1.90
2022-10-23T08:12:27.082Z,2.25
2022-10-23T08:14:55.429Z,2.00
2022-10-23T08:17:26.367Z,2.13
2022-10-23T08:20:14.405Z,2.58
2022-10-23T08:22:44.064Z,2.00
2022-10-23T08:25:14.002Z,2.15
2022-10-23T08:27:42.474Z,2.28
2022-10-23T08:30:10.533Z,1.80
2022-10-23T08:32:38.224Z,2.85
2022-10-23T08:35:06.407Z,2.72
2022-10-23T08:37:34.391Z,2.95
2022-10-23T08:40:02.021Z,2.38
2022-10-23T08:42:58.289Z,1.70
2022-10-23T08:45:37.857Z,1.83
2022-10-23T08:48:24.567Z,1.48
2022-10-23T08:51:19.405Z,1.98
2022-10-23T08:53:55.169Z,1.45
2022-10-23T08:56:29.652Z,2.00
2022-10-23T08:59:05.444Z,1.55
2022-10-23T09:01:32.923Z,1.80
2022-10-23T09:04:00.591Z,2.17
2022-10-23T09:06:39.228Z,1.50
2022-10-23T09:09:12.978Z,1.73
2022-10-23T09:11:47.419Z,1.67
2022-10-23T09:14:34.851Z,1.23
2022-10-23T09:17:11.479Z,1.80
2022-10-23T09:19:38.961Z,1.70
2022-10-23T09:22:06.597Z,1.98
2022-10-23T09:24:34.095Z,1.88
2022-10-23T09:27:01.591Z,2.70
2022-10-23T09:29:31.863Z,1.75
2022-10-23T09:32:05.542Z,1.60
2022-10-23T09:34:33.787Z,1.95
2022-10-23T09:37:21.370Z,1.67
2022-10-23T09:39:49.122Z,1.88
2022-10-23T09:42:25.204Z,1.70
2022-10-23T09:44:54.151Z,1.25
2022-10-23T09:47:24.388Z,1.20
2022-10-23T09:49:54.147Z,1.83
2022-10-23T09:52:24.406Z,1.88
2022-10-23T09:57:38.377Z,1.65
2022-10-23T10:00:16.075Z,1.50
2022-10-23T10:02:44.776Z,1.27
2022-10-23T10:05:43.965Z,1.17
2022-10-23T10:08:35.540Z,1.50
2022-10-23T10:11:05.825Z,1.38
2022-10-23T10:13:33.661Z,1.52
2022-10-23T10:16:11.500Z,1.42
2022-10-23T10:18:41.678Z,1.52
2022-10-23T10:23:36.559Z,1.23
2022-10-23T10:26:05.027Z,1.50
2022-10-23T10:28:58.419Z,1.92
2022-10-23T10:31:34.666Z,1.38
2022-10-23T10:34:35.579Z,1.55
2022-10-23T10:37:16.605Z,1.20
2022-10-23T10:39:52.714Z,1.40
2022-10-23T10:43:08.004Z,1.60
2022-10-23T10:45:35.344Z,1.67
2022-10-23T10:48:08.472Z,1.77
2022-10-23T10:51:02.676Z,1.10
2022-10-23T10:54:08.603Z,1.70
2022-10-23T10:56:39.176Z,2.13
2022-10-23T10:59:24.016Z,2.00
2022-10-23T11:01:53.915Z,1.58
2022-10-23T11:04:32.799Z,1.92
2022-10-23T11:07:05.957Z,2.03
2022-10-23T11:09:33.441Z,2.00
2022-10-23T11:12:00.817Z,1.70
2022-10-23T11:14:29.935Z,1.98
2022-10-23T11:17:10.130Z,2.37
2022-10-23T11:19:46.389Z,2.13
2022-10-23T11:22:32.407Z,3.92
2022-10-23T11:24:59.729Z,2.97
2022-10-23T11:27:45.661Z,2.40
2022-10-23T11:30:50.879Z,2.20
2022-10-23T11:33:38.399Z,2.63
2022-10-23T11:36:18.747Z,2.83
2022-10-23T11:38:49.672Z,1.75
2022-10-23T11:43:49.470Z,2.15
2022-10-23T11:46:28.728Z,1.70
2022-10-23T11:48:56.845Z,2.40
2022-10-23T11:51:40.708Z,2.50
2022-10-23T11:54:11.097Z,2.78
2022-10-23T11:56:55.847Z,2.05
2022-10-23T11:59:31.713Z,2.20
2022-10-23T12:02:01.056Z,1.77
2022-10-23T12:04:50.789Z,1.40
2022-10-23T12:07:28.034Z,1.85
2022-10-23T12:10:15.714Z,1.73
2022-10-23T12:12:43.507Z,1.75
2022-10-23T12:15:16.112Z,1.55
2022-10-23T12:17:45.367Z,1.42
2022-10-23T12:20:19.887Z,1.40
2022-10-23T12:22:59.201Z,1.42
2022-10-23T12:25:45.461Z,1.33
2022-10-23T12:28:13.325Z,1.65
2022-10-23T12:31:18.171Z,1.52
2022-10-23T12:33:45.759Z,2.00
2022-10-23T12:36:28.356Z,1.63
2022-10-23T12:38:58.618Z,1.63
2022-10-23T12:44:04.188Z,1.60
2022-10-23T12:46:34.353Z,2.03
2022-10-23T12:49:03.913Z,2.03
2022-10-23T12:51:34.769Z,1.75
2022-10-23T12:54:02.905Z,1.65
2022-10-23T12:56:39.047Z,3.28
2022-10-23T12:59:14.495Z,1.58
2022-10-23T13:01:43.453Z,1.23
2022-10-23T13:04:11.477Z,1.30
2022-10-23T13:06:39.615Z,1.75
2022-10-23T13:09:11.413Z,1.50
2022-10-23T13:11:50.601Z,2.05
2022-10-23T13:14:30.956Z,1.98
2022-10-23T13:17:05.680Z,2.45
2022-10-23T13:19:33.797Z,2.05
2022-10-23T13:22:01.903Z,2.80
2022-10-23T13:24:30.624Z,2.80
2022-10-23T13:26:58.668Z,2.20
2022-10-23T13:31:58.849Z,2.35
2022-10-23T13:34:28.482Z,2.03
2022-10-23T13:36:57.245Z,2.00
2022-10-23T13:39:26.565Z,1.70
2022-10-23T13:41:54.030Z,1.80
2022-10-23T13:44:23.033Z,1.75
2022-10-23T13:46:52.139Z,1.30
2022-10-23T13:49:20.096Z,1.75
2022-10-23T13:51:53.514Z,2.33
2022-10-23T13:54:24.382Z,4.65
2022-10-23T13:56:52.214Z,3.65
2022-10-23T13:59:19.613Z,2.05
2022-10-23T14:01:47.613Z,2.28
2022-10-23T14:04:15.459Z,2.42
2022-10-23T14:06:42.930Z,2.40
2022-10-23T14:09:14.734Z,1.55
2022-10-23T14:11:42.194Z,1.30
2022-10-23T14:14:09.880Z,1.27
2022-10-23T14:16:37.369Z,1.45
2022-10-23T14:19:04.736Z,1.30
2022-10-23T14:21:32.141Z,1.40
2022-10-23T14:23:59.434Z,1.20
2022-10-23T14:26:30.183Z,1.20
2022-10-23T14:29:00.733Z,1.38
2022-10-23T14:31:31.875Z,1.60
2022-10-23T14:34:00.832Z,1.27
2022-10-23T14:36:38.422Z,1.38
2022-10-23T14:39:16.512Z,1.42
2022-10-23T14:41:43.847Z,1.10
2022-10-23T14:44:11.190Z,1.83
2022-10-23T14:46:38.664Z,0.88
2022-10-23T14:49:06.150Z,1.50
2022-10-23T14:51:35.365Z,1.30
2022-10-23T14:54:03.985Z,1.25
2022-10-23T14:56:34.163Z,1.42
2022-10-23T14:59:04.684Z,1.50
2022-10-23T15:01:36.795Z,1.10
2022-10-23T15:04:04.536Z,1.30
2022-10-23T15:06:32.234Z,1.23
2022-10-23T15:08:59.594Z,1.40
2022-10-23T15:11:27.468Z,1.48
2022-10-23T15:13:54.993Z,1.15
2022-10-23T15:16:23.226Z,1.10
2022-10-23T15:18:50.556Z,1.45
2022-10-23T15:21:18.673Z,1.60
2022-10-23T15:23:46.640Z,1.30
2022-10-23T15:26:20.129Z,1.52
2022-10-23T15:28:48.202Z,1.45
2022-10-23T15:31:30.849Z,1.27
2022-10-23T15:33:58.734Z,1.13
2022-10-23T15:36:26.582Z,1.30
2022-10-23T15:38:53.889Z,1.40
2022-10-23T15:41:34.601Z,1.35
2022-10-23T15:44:02.891Z,1.45
2022-10-23T15:46:30.492Z,1.30
2022-10-23T15:48:57.940Z,1.83
2022-10-23T15:51:25.675Z,1.48
2022-10-23T15:53:53.063Z,2.08
2022-10-23T15:56:20.474Z,2.00
2022-10-23T15:58:47.821Z,3.33
2022-10-23T16:01:15.233Z,2.17
2022-10-23T16:03:42.657Z,2.13
2022-10-23T16:06:12.587Z,1.70
2022-10-23T16:08:40.712Z,1.83
2022-10-23T16:11:16.276Z,1.30
2022-10-23T16:13:44.066Z,1.50
2022-10-23T16:16:11.674Z,1.27
2022-10-23T16:18:39.399Z,0.90
2022-10-23T16:21:07.644Z,1.45
2022-10-23T16:23:35.138Z,1.40
2022-10-23T16:26:03.881Z,1.20
2022-10-23T16:28:31.325Z,1.02
2022-10-23T16:30:58.741Z,1.48
2022-10-23T16:33:26.229Z,1.25
2022-10-23T16:35:53.902Z,1.20
2022-10-23T16:38:23.596Z,1.45
2022-10-23T16:40:52.021Z,3.67
2022-10-23T16:43:51.790Z,1.20
2022-10-23T16:46:34.191Z,1.30
2022-10-23T16:49:05.070Z,1.25
2022-10-23T16:51:33.503Z,1.50
2022-10-23T16:54:00.951Z,1.50
2022-10-23T16:56:29.464Z,1.27
2022-10-23T17:01:31.930Z,2.20
2022-10-23T17:03:59.387Z,3.47
2022-10-23T17:06:30.174Z,3.97
2022-10-23T17:08:58.356Z,2.10
2022-10-23T17:11:27.407Z,1.25
2022-10-23T17:13:59.278Z,1.33
2022-10-23T17:16:39.125Z,1.48
2022-10-23T17:19:15.941Z,1.90
2022-10-23T17:21:48.874Z,1.10
2022-10-23T17:24:16.206Z,2.33
2022-10-23T17:26:43.725Z,1.90
2022-10-23T17:29:11.722Z,1.50
2022-10-23T17:31:40.627Z,1.50
2022-10-23T17:34:10.757Z,1.80
2022-10-23T17:36:40.053Z,1.38
2022-10-23T17:39:08.421Z,1.57
2022-10-23T17:41:35.889Z,1.90
2022-10-23T17:44:03.949Z,1.40
2022-10-23T17:46:31.603Z,1.70
2022-10-23T17:49:00.012Z,2.08
2022-10-23T17:51:28.385Z,1.88
2022-10-23T17:53:56.956Z,1.90
2022-10-23T17:56:26.595Z,1.60
2022-10-23T17:58:56.427Z,1.55
2022-10-23T18:01:28.270Z,1.55
2022-10-23T18:03:56.716Z,1.88
2022-10-23T18:06:28.899Z,1.55
2022-10-23T18:08:57.473Z,1.83
2022-10-23T18:11:30.656Z,1.90
2022-10-23T18:16:27.288Z,1.80
2022-10-23T18:18:58.547Z,1.60
2022-10-23T18:21:25.947Z,2.22
2022-10-23T18:23:53.482Z,1.92
2022-10-23T18:26:24.631Z,1.70
2022-10-23T18:28:53.339Z,1.58
2022-10-23T18:31:21.893Z,1.65
2022-10-23T18:33:49.374Z,1.35
2022-10-23T18:36:17.936Z,1.90
2022-10-23T18:38:45.486Z,1.75
2022-10-23T18:41:13.020Z,1.90
2022-10-23T18:43:44.531Z,2.22
2022-10-23T18:46:15.169Z,3.45
2022-10-23T18:48:43.530Z,6.35
2022-10-23T18:51:30.916Z,5.03
2022-10-23T18:53:58.521Z,2.67
2022-10-23T18:56:26.974Z,2.20
2022-10-23T18:58:55.640Z,3.38
2022-10-23T19:01:23.823Z,2.83
2022-10-23T19:03:51.457Z,3.35
2022-10-23T19:06:19.298Z,3.17
2022-10-23T19:08:48.331Z,2.42
2022-10-23T19:11:18.546Z,3.42
2022-10-23T19:16:19.566Z,3.42
2022-10-23T19:19:02.496Z,4.82
2022-10-23T19:21:33.581Z,3.47
2022-10-23T19:24:02.609Z,4.03
2022-10-23T19:26:32.826Z,3.50
2022-10-23T19:29:01.293Z,4.53
2022-10-23T19:31:28.902Z,3.50
2022-10-23T19:33:56.378Z,3.95
2022-10-23T19:36:23.835Z,4.30
2022-10-23T19:38:51.559Z,4.28
2022-10-23T19:41:19.136Z,6.60
2022-10-23T19:43:46.518Z,6.68
2022-10-23T19:46:13.952Z,5.30
2022-10-23T19:48:44.555Z,5.05
2022-10-23T19:51:13.361Z,4.05
2022-10-23T19:53:42.163Z,4.03
2022-10-23T19:56:10.548Z,3.90
2022-10-23T19:58:38.379Z,4.35
2022-10-23T20:01:09.679Z,4.65
2022-10-23T20:03:37.167Z,4.40
2022-10-23T20:06:04.749Z,3.78
2022-10-23T20:08:34.977Z,3.83
2022-10-23T20:11:02.650Z,4.07
2022-10-23T20:13:30.089Z,3.42
2022-10-23T20:15:57.483Z,3.17
2022-10-23T20:18:25.996Z,3.13
2022-10-23T20:20:53.639Z,3.35
2022-10-23T20:23:21.132Z,3.03
2022-10-23T20:25:48.456Z,3.03
2022-10-23T20:28:15.918Z,2.55
2022-10-23T20:30:45.625Z,3.15
2022-10-23T20:33:13.032Z,2.78
2022-10-23T20:35:41.744Z,3.40
2022-10-23T20:38:09.965Z,3.95
2022-10-23T20:40:37.335Z,2.33
2022-10-23T20:43:04.786Z,2.55
2022-10-23T20:45:32.241Z,2.65
2022-10-23T20:47:59.577Z,2.63
2022-10-23T20:50:27.075Z,2.30
2022-10-23T20:52:54.509Z,2.25
2022-10-23T20:55:21.828Z,2.42
2022-10-23T20:57:49.279Z,3.42
2022-10-23T21:00:16.985Z,2.35
2022-10-23T21:02:47.150Z,2.13
2022-10-23T21:05:17.209Z,2.40
2022-10-23T21:07:44.566Z,3.13
2022-10-23T21:10:12.057Z,2.75
2022-10-23T21:12:39.446Z,2.28
2022-10-23T21:15:07.122Z,2.05
2022-10-23T21:17:38.783Z,3.25
2022-10-23T21:20:06.445Z,2.15
2022-10-23T21:22:34.059Z,2.85
2022-10-23T21:25:01.685Z,2.20
2022-10-23T21:27:29.026Z,2.40
2022-10-23T21:29:56.357Z,2.53
2022-10-23T21:32:23.669Z,2.20
2022-10-23T21:34:50.962Z,2.33
2022-10-23T21:37:18.342Z,2.95
2022-10-23T21:39:46.689Z,2.15
2022-10-23T21:42:15.108Z,1.77
2022-10-23T21:44:42.607Z,2.03
2022-10-23T21:47:10.107Z,1.90
2022-10-23T21:49:37.444Z,2.08
2022-10-23T21:52:05.425Z,2.08
2022-10-23T21:54:32.869Z,2.42
2022-10-23T21:57:00.233Z,2.35
2022-10-23T21:59:30.284Z,2.17
2022-10-23T22:01:59.376Z,2.42
2022-10-23T22:04:26.807Z,2.08
2022-10-23T22:06:54.197Z,2.67
2022-10-23T22:09:22.135Z,2.47
2022-10-23T22:11:50.280Z,2.63
2022-10-23T22:14:17.636Z,2.28
2022-10-23T22:16:45.252Z,2.00
2022-10-23T22:19:14.443Z,2.50
2022-10-23T22:21:41.983Z,2.38
2022-10-23T22:24:09.689Z,2.90
2022-10-23T22:26:38.327Z,2.33
2022-10-23T22:29:10.912Z,2.20
2022-10-23T22:31:41.314Z,2.53
2022-10-23T22:34:26.654Z,2.47
2022-10-23T22:37:01.489Z,2.63
2022-10-23T22:39:28.864Z,2.00
2022-10-23T22:41:56.327Z,2.85
2022-10-23T22:44:23.629Z,2.17
2022-10-23T22:46:50.943Z,2.35
2022-10-23T22:49:18.359Z,1.90
2022-10-23T22:51:45.764Z,2.05
2022-10-23T22:54:13.063Z,2.42
2022-10-23T22:56:40.463Z,2.00
2022-10-23T22:59:07.771Z,1.83
2022-10-23T23:01:41.362Z,2.53
2022-10-23T23:04:26.053Z,2.25
2022-10-23T23:06:56.162Z,2.67
2022-10-23T23:09:23.782Z,2.35
2022-10-23T23:11:52.361Z,1.75
2022-10-23T23:14:23.619Z,2.30
2022-10-23T23:16:52.283Z,2.08
2022-10-23T23:19:19.656Z,2.22
2022-10-23T23:21:47.048Z,1.83
2022-10-23T23:24:14.362Z,2.30
2022-10-23T23:26:41.824Z,1.65
2022-10-23T23:29:09.262Z,2.33
2022-10-23T23:31:36.641Z,2.35
2022-10-23T23:34:04.019Z,2.53
2022-10-23T23:36:31.516Z,2.03
2022-10-23T23:38:59.198Z,2.83
2022-10-23T23:41:27.407Z,2.30
2022-10-23T23:43:55.516Z,2.80
2022-10-23T23:46:22.962Z,2.55
2022-10-23T23:48:50.389Z,2.55
2022-10-23T23:51:20.364Z,2.20
2022-10-23T23:53:48.073Z,2.42
2022-10-23T23:56:15.405Z,2.40
2022-10-23T23:58:42.860Z,1.90
